sensor_id;sensor_type;location;lat;lon;timestamp;P1;durP1;ratioP1;P2;durP2;ratioP2
49948;SDS011;35840;45.982;8.890;2023-02-23T00:01:52;37.00;;;23.45;;
49948;SDS011;35840;45.982;8.890;2023-02-23T00:04:18;35.30;;;24.38;;
49948;SDS011;35840;45.982;8.890;2023-02-23T00:06:45;38.70;;;23.67;;
49948;SDS011;35840;45.982;8.890;2023-02-23T00:09:12;37.47;;;23.00;;
49948;SDS011;35840;45.982;8.890;2023-02-23T00:11:52;35.60;;;24.17;;
49948;SDS011;35840;45.982;8.890;2023-02-23T00:14:23;34.92;;;23.65;;
49948;SDS011;35840;45.982;8.890;2023-02-23T00:16:53;40.47;;;26.02;;
49948;SDS011;35840;45.982;8.890;2023-02-23T00:19:22;38.60;;;25.05;;
49948;SDS011;35840;45.982;8.890;2023-02-23T00:21:52;38.75;;;25.30;;
49948;SDS011;35840;45.982;8.890;2023-02-23T00:24:19;37.33;;;23.77;;
49948;SDS011;35840;45.982;8.890;2023-02-23T00:26:47;39.28;;;24.65;;
49948;SDS011;35840;45.982;8.890;2023-02-23T00:29:17;34.58;;;23.80;;
49948;SDS011;35840;45.982;8.890;2023-02-23T00:31:49;36.30;;;23.77;;
49948;SDS011;35840;45.982;8.890;2023-02-23T00:34:18;31.25;;;22.83;;
49948;SDS011;35840;45.982;8.890;2023-02-23T00:36:50;34.20;;;24.05;;
49948;SDS011;35840;45.982;8.890;2023-02-23T00:39:20;40.00;;;25.08;;
49948;SDS011;35840;45.982;8.890;2023-02-23T00:41:50;39.78;;;24.73;;
49948;SDS011;35840;45.982;8.890;2023-02-23T00:44:18;42.03;;;25.00;;
49948;SDS011;35840;45.982;8.890;2023-02-23T00:46:47;35.70;;;26.23;;
49948;SDS011;35840;45.982;8.890;2023-02-23T00:49:18;37.95;;;25.15;;
49948;SDS011;35840;45.982;8.890;2023-02-23T00:51:46;38.42;;;24.60;;
49948;SDS011;35840;45.982;8.890;2023-02-23T00:54:14;38.97;;;24.55;;
49948;SDS011;35840;45.982;8.890;2023-02-23T00:56:43;35.13;;;24.45;;
49948;SDS011;35840;45.982;8.890;2023-02-23T00:59:11;36.35;;;25.05;;
49948;SDS011;35840;45.982;8.890;2023-02-23T01:01:39;40.53;;;25.60;;
49948;SDS011;35840;45.982;8.890;2023-02-23T01:04:09;38.92;;;24.60;;
49948;SDS011;35840;45.982;8.890;2023-02-23T01:06:37;37.55;;;24.40;;
49948;SDS011;35840;45.982;8.890;2023-02-23T01:09:08;39.15;;;25.08;;
49948;SDS011;35840;45.982;8.890;2023-02-23T01:11:38;36.83;;;24.17;;
49948;SDS011;35840;45.982;8.890;2023-02-23T01:14:07;35.15;;;22.88;;
49948;SDS011;35840;45.982;8.890;2023-02-23T01:16:36;39.78;;;22.48;;
49948;SDS011;35840;45.982;8.890;2023-02-23T01:19:04;34.30;;;21.45;;
49948;SDS011;35840;45.982;8.890;2023-02-23T01:21:33;46.47;;;21.88;;
49948;SDS011;35840;45.982;8.890;2023-02-23T01:24:01;36.63;;;22.08;;
49948;SDS011;35840;45.982;8.890;2023-02-23T01:26:29;35.95;;;22.75;;
49948;SDS011;35840;45.982;8.890;2023-02-23T01:29:04;33.13;;;22.10;;
49948;SDS011;35840;45.982;8.890;2023-02-23T01:31:37;32.92;;;21.65;;
49948;SDS011;35840;45.982;8.890;2023-02-23T01:34:06;39.45;;;23.42;;
49948;SDS011;35840;45.982;8.890;2023-02-23T01:36:34;34.45;;;22.48;;
49948;SDS011;35840;45.982;8.890;2023-02-23T01:39:05;35.65;;;23.20;;
49948;SDS011;35840;45.982;8.890;2023-02-23T01:41:35;34.95;;;22.27;;
49948;SDS011;35840;45.982;8.890;2023-02-23T01:44:06;36.10;;;22.92;;
49948;SDS011;35840;45.982;8.890;2023-02-23T01:46:54;35.83;;;23.27;;
49948;SDS011;35840;45.982;8.890;2023-02-23T01:49:22;35.42;;;22.88;;
49948;SDS011;35840;45.982;8.890;2023-02-23T01:51:54;34.35;;;22.42;;
49948;SDS011;35840;45.982;8.890;2023-02-23T01:54:34;36.30;;;23.08;;
49948;SDS011;35840;45.982;8.890;2023-02-23T01:57:04;35.92;;;23.10;;
49948;SDS011;35840;45.982;8.890;2023-02-23T02:02:12;32.33;;;22.48;;
49948;SDS011;35840;45.982;8.890;2023-02-23T02:04:41;38.60;;;23.98;;
49948;SDS011;35840;45.982;8.890;2023-02-23T02:07:11;38.33;;;24.55;;
49948;SDS011;35840;45.982;8.890;2023-02-23T02:09:40;40.03;;;25.65;;
49948;SDS011;35840;45.982;8.890;2023-02-23T02:12:28;43.67;;;27.25;;
49948;SDS011;35840;45.982;8.890;2023-02-23T02:14:56;41.88;;;25.63;;
49948;SDS011;35840;45.982;8.890;2023-02-23T02:23:19;40.50;;;26.35;;
49948;SDS011;35840;45.982;8.890;2023-02-23T02:26:08;39.42;;;25.20;;
49948;SDS011;35840;45.982;8.890;2023-02-23T02:32:17;42.03;;;26.80;;
49948;SDS011;35840;45.982;8.890;2023-02-23T02:48:32;39.47;;;26.65;;
49948;SDS011;35840;45.982;8.890;2023-02-23T02:54:01;35.97;;;24.70;;
49948;SDS011;35840;45.982;8.890;2023-02-23T02:56:40;39.47;;;24.67;;
49948;SDS011;35840;45.982;8.890;2023-02-23T02:59:14;38.65;;;24.77;;
49948;SDS011;35840;45.982;8.890;2023-02-23T03:02:01;38.75;;;25.23;;
49948;SDS011;35840;45.982;8.890;2023-02-23T03:04:49;39.90;;;24.85;;
49948;SDS011;35840;45.982;8.890;2023-02-23T03:07:42;42.73;;;27.27;;
49948;SDS011;35840;45.982;8.890;2023-02-23T03:10:39;39.65;;;25.00;;
49948;SDS011;35840;45.982;8.890;2023-02-23T03:13:31;36.78;;;24.00;;
49948;SDS011;35840;45.982;8.890;2023-02-23T03:16:30;39.63;;;24.48;;
49948;SDS011;35840;45.982;8.890;2023-02-23T03:19:33;37.85;;;24.70;;
49948;SDS011;35840;45.982;8.890;2023-02-23T03:22:29;35.17;;;24.35;;
49948;SDS011;35840;45.982;8.890;2023-02-23T03:25:34;38.88;;;25.38;;
49948;SDS011;35840;45.982;8.890;2023-02-23T03:28:41;37.22;;;25.00;;
49948;SDS011;35840;45.982;8.890;2023-02-23T03:34:41;40.72;;;22.63;;
49948;SDS011;35840;45.982;8.890;2023-02-23T03:37:36;36.85;;;21.40;;
49948;SDS011;35840;45.982;8.890;2023-02-23T03:40:35;34.22;;;22.33;;
49948;SDS011;35840;45.982;8.890;2023-02-23T03:43:25;35.40;;;22.17;;
49948;SDS011;35840;45.982;8.890;2023-02-23T03:46:17;32.22;;;20.15;;
49948;SDS011;35840;45.982;8.890;2023-02-23T03:49:06;37.05;;;22.85;;
49948;SDS011;35840;45.982;8.890;2023-02-23T03:51:56;32.78;;;21.20;;
49948;SDS011;35840;45.982;8.890;2023-02-23T03:54:50;33.97;;;22.05;;
49948;SDS011;35840;45.982;8.890;2023-02-23T03:57:40;34.00;;;21.20;;
49948;SDS011;35840;45.982;8.890;2023-02-23T04:00:28;37.85;;;22.08;;
49948;SDS011;35840;45.982;8.890;2023-02-23T04:03:17;35.60;;;21.58;;
49948;SDS011;35840;45.982;8.890;2023-02-23T04:06:06;37.47;;;23.35;;
49948;SDS011;35840;45.982;8.890;2023-02-23T04:08:55;37.63;;;22.15;;
49948;SDS011;35840;45.982;8.890;2023-02-23T04:11:47;36.25;;;22.48;;
49948;SDS011;35840;45.982;8.890;2023-02-23T04:14:43;38.45;;;23.33;;
49948;SDS011;35840;45.982;8.890;2023-02-23T04:17:16;39.15;;;23.13;;
49948;SDS011;35840;45.982;8.890;2023-02-23T04:19:48;36.75;;;24.15;;
49948;SDS011;35840;45.982;8.890;2023-02-23T04:22:16;37.83;;;24.05;;
49948;SDS011;35840;45.982;8.890;2023-02-23T04:24:42;39.63;;;23.73;;
49948;SDS011;35840;45.982;8.890;2023-02-23T04:27:12;35.10;;;22.15;;
49948;SDS011;35840;45.982;8.890;2023-02-23T04:29:39;37.97;;;21.50;;
49948;SDS011;35840;45.982;8.890;2023-02-23T04:32:06;35.90;;;20.83;;
49948;SDS011;35840;45.982;8.890;2023-02-23T04:34:39;35.38;;;21.48;;
49948;SDS011;35840;45.982;8.890;2023-02-23T04:37:06;33.10;;;21.70;;
49948;SDS011;35840;45.982;8.890;2023-02-23T04:39:32;35.45;;;20.98;;
49948;SDS011;35840;45.982;8.890;2023-02-23T04:41:59;35.08;;;21.63;;
49948;SDS011;35840;45.982;8.890;2023-02-23T04:44:26;40.20;;;22.98;;
49948;SDS011;35840;45.982;8.890;2023-02-23T04:46:53;35.90;;;21.70;;
49948;SDS011;35840;45.982;8.890;2023-02-23T04:49:19;34.83;;;20.95;;
49948;SDS011;35840;45.982;8.890;2023-02-23T04:51:46;36.60;;;22.00;;
49948;SDS011;35840;45.982;8.890;2023-02-23T04:54:13;36.30;;;21.40;;
49948;SDS011;35840;45.982;8.890;2023-02-23T04:56:40;37.80;;;23.25;;
49948;SDS011;35840;45.982;8.890;2023-02-23T04:59:06;37.03;;;23.45;;
49948;SDS011;35840;45.982;8.890;2023-02-23T05:01:33;38.22;;;23.80;;
49948;SDS011;35840;45.982;8.890;2023-02-23T05:04:02;38.55;;;23.40;;
49948;SDS011;35840;45.982;8.890;2023-02-23T05:06:29;36.05;;;23.92;;
49948;SDS011;35840;45.982;8.890;2023-02-23T05:08:57;38.15;;;23.52;;
49948;SDS011;35840;45.982;8.890;2023-02-23T05:11:23;38.78;;;23.50;;
49948;SDS011;35840;45.982;8.890;2023-02-23T05:13:52;38.60;;;22.35;;
49948;SDS011;35840;45.982;8.890;2023-02-23T05:16:19;41.13;;;24.70;;
49948;SDS011;35840;45.982;8.890;2023-02-23T05:18:46;38.50;;;24.85;;
49948;SDS011;35840;45.982;8.890;2023-02-23T05:21:13;36.55;;;22.80;;
49948;SDS011;35840;45.982;8.890;2023-02-23T05:23:40;36.90;;;23.60;;
49948;SDS011;35840;45.982;8.890;2023-02-23T05:26:08;39.65;;;22.35;;
49948;SDS011;35840;45.982;8.890;2023-02-23T05:28:36;35.65;;;22.75;;
49948;SDS011;35840;45.982;8.890;2023-02-23T05:31:04;36.38;;;21.52;;
49948;SDS011;35840;45.982;8.890;2023-02-23T05:33:32;33.28;;;22.48;;
49948;SDS011;35840;45.982;8.890;2023-02-23T05:36:03;34.58;;;23.17;;
49948;SDS011;35840;45.982;8.890;2023-02-23T05:38:30;46.00;;;22.30;;
49948;SDS011;35840;45.982;8.890;2023-02-23T05:40:56;33.75;;;22.25;;
49948;SDS011;35840;45.982;8.890;2023-02-23T05:43:23;39.55;;;24.25;;
49948;SDS011;35840;45.982;8.890;2023-02-23T05:45:50;44.47;;;25.55;;
49948;SDS011;35840;45.982;8.890;2023-02-23T05:48:17;40.17;;;23.88;;
49948;SDS011;35840;45.982;8.890;2023-02-23T05:50:43;42.80;;;23.38;;
49948;SDS011;35840;45.982;8.890;2023-02-23T05:53:10;41.13;;;24.15;;
49948;SDS011;35840;45.982;8.890;2023-02-23T05:55:36;40.85;;;24.23;;
49948;SDS011;35840;45.982;8.890;2023-02-23T05:58:03;42.13;;;23.60;;
49948;SDS011;35840;45.982;8.890;2023-02-23T06:00:30;41.40;;;23.90;;
49948;SDS011;35840;45.982;8.890;2023-02-23T06:02:57;35.00;;;22.02;;
49948;SDS011;35840;45.982;8.890;2023-02-23T06:05:23;40.17;;;23.88;;
49948;SDS011;35840;45.982;8.890;2023-02-23T06:07:50;38.00;;;23.52;;
49948;SDS011;35840;45.982;8.890;2023-02-23T06:10:16;36.30;;;23.17;;
49948;SDS011;35840;45.982;8.890;2023-02-23T06:12:43;43.30;;;24.80;;
49948;SDS011;35840;45.982;8.890;2023-02-23T06:15:10;44.88;;;24.75;;
49948;SDS011;35840;45.982;8.890;2023-02-23T06:17:37;42.20;;;25.95;;
49948;SDS011;35840;45.982;8.890;2023-02-23T06:20:04;35.63;;;23.08;;
49948;SDS011;35840;45.982;8.890;2023-02-23T06:22:32;41.40;;;23.25;;
49948;SDS011;35840;45.982;8.890;2023-02-23T06:24:59;38.10;;;22.77;;
49948;SDS011;35840;45.982;8.890;2023-02-23T06:27:25;37.05;;;23.08;;
49948;SDS011;35840;45.982;8.890;2023-02-23T06:29:52;40.08;;;23.88;;
49948;SDS011;35840;45.982;8.890;2023-02-23T06:32:19;35.90;;;23.05;;
49948;SDS011;35840;45.982;8.890;2023-02-23T06:34:48;35.25;;;23.77;;
49948;SDS011;35840;45.982;8.890;2023-02-23T06:37:15;39.45;;;23.23;;
49948;SDS011;35840;45.982;8.890;2023-02-23T06:39:41;41.50;;;24.63;;
49948;SDS011;35840;45.982;8.890;2023-02-23T06:42:08;34.78;;;22.23;;
49948;SDS011;35840;45.982;8.890;2023-02-23T06:44:34;35.50;;;22.88;;
49948;SDS011;35840;45.982;8.890;2023-02-23T06:47:03;35.85;;;22.38;;
49948;SDS011;35840;45.982;8.890;2023-02-23T06:49:31;35.90;;;21.58;;
49948;SDS011;35840;45.982;8.890;2023-02-23T06:51:58;43.17;;;22.73;;
49948;SDS011;35840;45.982;8.890;2023-02-23T06:54:25;39.47;;;23.92;;
49948;SDS011;35840;45.982;8.890;2023-02-23T06:56:52;36.92;;;24.23;;
49948;SDS011;35840;45.982;8.890;2023-02-23T06:59:21;36.95;;;22.00;;
49948;SDS011;35840;45.982;8.890;2023-02-23T07:01:49;40.13;;;24.30;;
49948;SDS011;35840;45.982;8.890;2023-02-23T07:04:16;40.53;;;25.02;;
49948;SDS011;35840;45.982;8.890;2023-02-23T07:06:43;40.55;;;25.70;;
49948;SDS011;35840;45.982;8.890;2023-02-23T07:09:10;63.88;;;27.42;;
49948;SDS011;35840;45.982;8.890;2023-02-23T07:11:38;68.35;;;27.65;;
49948;SDS011;35840;45.982;8.890;2023-02-23T07:14:08;62.75;;;27.27;;
49948;SDS011;35840;45.982;8.890;2023-02-23T07:16:43;40.45;;;23.75;;
49948;SDS011;35840;45.982;8.890;2023-02-23T07:19:10;41.53;;;23.30;;
49948;SDS011;35840;45.982;8.890;2023-02-23T07:21:37;47.65;;;26.55;;
49948;SDS011;35840;45.982;8.890;2023-02-23T07:24:03;47.65;;;27.20;;
49948;SDS011;35840;45.982;8.890;2023-02-23T07:26:31;43.15;;;26.73;;
49948;SDS011;35840;45.982;8.890;2023-02-23T07:29:01;39.92;;;24.55;;
49948;SDS011;35840;45.982;8.890;2023-02-23T07:31:28;46.17;;;25.25;;
49948;SDS011;35840;45.982;8.890;2023-02-23T07:33:55;46.78;;;26.00;;
49948;SDS011;35840;45.982;8.890;2023-02-23T07:36:22;38.92;;;24.20;;
49948;SDS011;35840;45.982;8.890;2023-02-23T07:38:49;36.72;;;24.02;;
49948;SDS011;35840;45.982;8.890;2023-02-23T07:41:16;41.70;;;25.35;;
49948;SDS011;35840;45.982;8.890;2023-02-23T07:43:43;42.88;;;25.20;;
49948;SDS011;35840;45.982;8.890;2023-02-23T07:46:10;46.22;;;26.35;;
49948;SDS011;35840;45.982;8.890;2023-02-23T07:48:37;42.60;;;25.50;;
49948;SDS011;35840;45.982;8.890;2023-02-23T07:51:08;48.72;;;27.23;;
49948;SDS011;35840;45.982;8.890;2023-02-23T07:53:37;49.70;;;26.25;;
49948;SDS011;35840;45.982;8.890;2023-02-23T07:56:05;40.72;;;25.65;;
49948;SDS011;35840;45.982;8.890;2023-02-23T07:58:33;38.90;;;24.35;;
49948;SDS011;35840;45.982;8.890;2023-02-23T08:01:00;48.30;;;27.42;;
49948;SDS011;35840;45.982;8.890;2023-02-23T08:03:27;46.83;;;28.48;;
49948;SDS011;35840;45.982;8.890;2023-02-23T08:05:54;41.47;;;26.98;;
49948;SDS011;35840;45.982;8.890;2023-02-23T08:08:21;46.22;;;27.75;;
49948;SDS011;35840;45.982;8.890;2023-02-23T08:10:48;42.58;;;25.98;;
49948;SDS011;35840;45.982;8.890;2023-02-23T08:13:15;43.92;;;26.05;;
49948;SDS011;35840;45.982;8.890;2023-02-23T08:15:42;51.25;;;27.20;;
49948;SDS011;35840;45.982;8.890;2023-02-23T08:18:09;44.15;;;25.55;;
49948;SDS011;35840;45.982;8.890;2023-02-23T08:20:36;45.75;;;27.05;;
49948;SDS011;35840;45.982;8.890;2023-02-23T08:23:03;41.92;;;25.60;;
49948;SDS011;35840;45.982;8.890;2023-02-23T08:25:30;41.17;;;25.60;;
49948;SDS011;35840;45.982;8.890;2023-02-23T08:27:58;43.17;;;26.45;;
49948;SDS011;35840;45.982;8.890;2023-02-23T08:30:30;43.33;;;26.38;;
49948;SDS011;35840;45.982;8.890;2023-02-23T08:32:57;40.53;;;26.17;;
49948;SDS011;35840;45.982;8.890;2023-02-23T08:35:24;46.03;;;27.42;;
49948;SDS011;35840;45.982;8.890;2023-02-23T08:37:51;58.92;;;27.20;;
